sensor_id;sensor_type;location;lat;lon;timestamp;P1;durP1;ratioP1;P2;durP2;ratioP2
3261;SDS011;1643;47.746;9.000;2023-02-16T00:01:12;18.07;;;11.50;;
3261;SDS011;1643;47.746;9.000;2023-02-16T00:03:50;17.33;;;11.40;;
3261;SDS011;1643;47.746;9.000;2023-02-16T00:06:16;14.17;;;9.63;;
3261;SDS011;1643;47.746;9.000;2023-02-16T00:08:43;20.60;;;11.70;;
3261;SDS011;1643;47.746;9.000;2023-02-16T00:11:14;17.40;;;10.00;;
3261;SDS011;1643;47.746;9.000;2023-02-16T00:14:17;19.83;;;10.37;;
3261;SDS011;1643;47.746;9.000;2023-02-16T00:16:46;26.20;;;10.77;;
3261;SDS011;1643;47.746;9.000;2023-02-16T00:21:54;19.10;;;10.27;;
3261;SDS011;1643;47.746;9.000;2023-02-16T00:24:22;50.13;;;12.20;;
3261;SDS011;1643;47.746;9.000;2023-02-16T00:26:49;38.60;;;10.77;;
3261;SDS011;1643;47.746;9.000;2023-02-16T00:31:45;18.07;;;9.97;;
3261;SDS011;1643;47.746;9.000;2023-02-16T00:37:09;20.67;;;11.33;;
3261;SDS011;1643;47.746;9.000;2023-02-16T00:39:37;14.63;;;9.80;;
3261;SDS011;1643;47.746;9.000;2023-02-16T00:42:11;21.20;;;10.17;;
3261;SDS011;1643;47.746;9.000;2023-02-16T00:44:43;14.80;;;9.20;;
3261;SDS011;1643;47.746;9.000;2023-02-16T00:47:19;16.43;;;10.53;;
3261;SDS011;1643;47.746;9.000;2023-02-16T00:49:57;14.10;;;10.10;;
3261;SDS011;1643;47.746;9.000;2023-02-16T00:54:58;17.03;;;10.90;;
3261;SDS011;1643;47.746;9.000;2023-02-16T00:57:25;19.00;;;11.20;;
3261;SDS011;1643;47.746;9.000;2023-02-16T00:59:58;18.20;;;11.07;;
3261;SDS011;1643;47.746;9.000;2023-02-16T01:02:27;13.57;;;9.10;;
3261;SDS011;1643;47.746;9.000;2023-02-16T01:04:53;14.07;;;9.90;;
3261;SDS011;1643;47.746;9.000;2023-02-16T01:07:19;14.10;;;9.40;;
3261;SDS011;1643;47.746;9.000;2023-02-16T01:10:03;14.33;;;9.70;;
3261;SDS011;1643;47.746;9.000;2023-02-16T01:12:49;16.73;;;11.23;;
3261;SDS011;1643;47.746;9.000;2023-02-16T01:15:15;18.53;;;11.53;;
3261;SDS011;1643;47.746;9.000;2023-02-16T01:17:45;17.20;;;11.70;;
3261;SDS011;1643;47.746;9.000;2023-02-16T01:20:15;15.53;;;10.60;;
3261;SDS011;1643;47.746;9.000;2023-02-16T01:22:42;17.60;;;11.10;;
3261;SDS011;1643;47.746;9.000;2023-02-16T01:25:08;21.50;;;11.40;;
3261;SDS011;1643;47.746;9.000;2023-02-16T01:27:35;14.30;;;10.13;;
3261;SDS011;1643;47.746;9.000;2023-02-16T01:30:02;19.33;;;11.40;;
3261;SDS011;1643;47.746;9.000;2023-02-16T01:32:32;14.90;;;11.47;;
3261;SDS011;1643;47.746;9.000;2023-02-16T01:34:58;12.73;;;9.10;;
3261;SDS011;1643;47.746;9.000;2023-02-16T01:37:24;19.33;;;11.20;;
3261;SDS011;1643;47.746;9.000;2023-02-16T01:39:49;12.07;;;9.53;;
3261;SDS011;1643;47.746;9.000;2023-02-16T01:42:22;17.07;;;10.73;;
3261;SDS011;1643;47.746;9.000;2023-02-16T01:44:54;15.50;;;9.97;;
3261;SDS011;1643;47.746;9.000;2023-02-16T01:49:57;15.27;;;11.17;;
3261;SDS011;1643;47.746;9.000;2023-02-16T02:03:13;23.07;;;11.43;;
3261;SDS011;1643;47.746;9.000;2023-02-16T02:06:11;16.43;;;10.40;;
3261;SDS011;1643;47.746;9.000;2023-02-16T02:08:57;12.80;;;9.73;;
3261;SDS011;1643;47.746;9.000;2023-02-16T02:11:49;18.53;;;10.33;;
3261;SDS011;1643;47.746;9.000;2023-02-16T02:14:19;15.33;;;11.40;;
3261;SDS011;1643;47.746;9.000;2023-02-16T02:16:55;21.27;;;12.93;;
3261;SDS011;1643;47.746;9.000;2023-02-16T02:25:32;20.33;;;10.67;;
3261;SDS011;1643;47.746;9.000;2023-02-16T02:31:36;13.70;;;9.67;;
3261;SDS011;1643;47.746;9.000;2023-02-16T02:34:26;17.53;;;11.30;;
3261;SDS011;1643;47.746;9.000;2023-02-16T02:37:12;17.40;;;11.50;;
3261;SDS011;1643;47.746;9.000;2023-02-16T02:43:06;16.83;;;11.90;;
3261;SDS011;1643;47.746;9.000;2023-02-16T02:45:48;15.70;;;10.60;;
3261;SDS011;1643;47.746;9.000;2023-02-16T02:48:18;26.73;;;12.90;;
3261;SDS011;1643;47.746;9.000;2023-02-16T02:53:42;27.40;;;12.00;;
3261;SDS011;1643;47.746;9.000;2023-02-16T02:56:13;18.03;;;11.43;;
3261;SDS011;1643;47.746;9.000;2023-02-16T02:59:01;17.20;;;10.73;;
3261;SDS011;1643;47.746;9.000;2023-02-16T03:01:51;22.63;;;12.17;;
3261;SDS011;1643;47.746;9.000;2023-02-16T03:04:21;22.00;;;11.53;;
3261;SDS011;1643;47.746;9.000;2023-02-16T03:06:51;26.93;;;14.83;;
3261;SDS011;1643;47.746;9.000;2023-02-16T03:09:20;32.93;;;13.90;;
3261;SDS011;1643;47.746;9.000;2023-02-16T03:11:46;19.03;;;13.10;;
3261;SDS011;1643;47.746;9.000;2023-02-16T03:14:40;27.00;;;12.80;;
3261;SDS011;1643;47.746;9.000;2023-02-16T03:17:13;55.93;;;15.03;;
3261;SDS011;1643;47.746;9.000;2023-02-16T03:20:00;18.20;;;11.00;;
3261;SDS011;1643;47.746;9.000;2023-02-16T03:22:49;23.90;;;13.27;;
3261;SDS011;1643;47.746;9.000;2023-02-16T03:25:34;22.30;;;14.03;;
3261;SDS011;1643;47.746;9.000;2023-02-16T03:28:21;27.00;;;14.10;;
3261;SDS011;1643;47.746;9.000;2023-02-16T03:31:09;19.60;;;12.00;;
3261;SDS011;1643;47.746;9.000;2023-02-16T03:33:39;34.17;;;14.07;;
3261;SDS011;1643;47.746;9.000;2023-02-16T03:36:06;24.23;;;14.43;;
3261;SDS011;1643;47.746;9.000;2023-02-16T03:38:32;26.43;;;12.83;;
3261;SDS011;1643;47.746;9.000;2023-02-16T03:40:58;20.50;;;13.07;;
3261;SDS011;1643;47.746;9.000;2023-02-16T03:43:24;20.40;;;11.63;;
3261;SDS011;1643;47.746;9.000;2023-02-16T03:45:51;16.47;;;10.87;;
3261;SDS011;1643;47.746;9.000;2023-02-16T03:48:17;18.20;;;11.10;;
3261;SDS011;1643;47.746;9.000;2023-02-16T03:50:43;16.13;;;11.03;;
3261;SDS011;1643;47.746;9.000;2023-02-16T03:53:09;18.90;;;11.40;;
3261;SDS011;1643;47.746;9.000;2023-02-16T03:55:35;21.83;;;12.90;;
3261;SDS011;1643;47.746;9.000;2023-02-16T03:58:02;17.13;;;10.27;;
3261;SDS011;1643;47.746;9.000;2023-02-16T04:00:28;20.30;;;10.80;;
3261;SDS011;1643;47.746;9.000;2023-02-16T04:02:54;18.60;;;11.63;;
3261;SDS011;1643;47.746;9.000;2023-02-16T04:05:20;28.93;;;12.70;;
3261;SDS011;1643;47.746;9.000;2023-02-16T04:07:46;20.27;;;11.40;;
3261;SDS011;1643;47.746;9.000;2023-02-16T04:10:11;15.90;;;10.57;;
3261;SDS011;1643;47.746;9.000;2023-02-16T04:12:37;16.23;;;10.93;;
3261;SDS011;1643;47.746;9.000;2023-02-16T04:15:03;16.70;;;9.53;;
3261;SDS011;1643;47.746;9.000;2023-02-16T04:17:31;20.20;;;11.67;;
3261;SDS011;1643;47.746;9.000;2023-02-16T04:19:57;16.50;;;11.00;;
3261;SDS011;1643;47.746;9.000;2023-02-16T04:22:22;19.20;;;11.80;;
3261;SDS011;1643;47.746;9.000;2023-02-16T04:24:48;18.17;;;11.17;;
3261;SDS011;1643;47.746;9.000;2023-02-16T04:27:13;18.13;;;11.27;;
3261;SDS011;1643;47.746;9.000;2023-02-16T04:29:39;19.33;;;10.70;;
3261;SDS011;1643;47.746;9.000;2023-02-16T04:32:05;18.27;;;11.07;;
3261;SDS011;1643;47.746;9.000;2023-02-16T04:34:30;12.77;;;9.97;;
3261;SDS011;1643;47.746;9.000;2023-02-16T04:36:56;14.77;;;9.30;;
3261;SDS011;1643;47.746;9.000;2023-02-16T04:39:21;18.37;;;12.30;;
3261;SDS011;1643;47.746;9.000;2023-02-16T04:41:47;14.80;;;10.90;;
3261;SDS011;1643;47.746;9.000;2023-02-16T04:44:12;21.73;;;12.13;;
3261;SDS011;1643;47.746;9.000;2023-02-16T04:46:38;24.43;;;12.43;;
3261;SDS011;1643;47.746;9.000;2023-02-16T04:49:04;15.30;;;10.10;;
3261;SDS011;1643;47.746;9.000;2023-02-16T04:51:29;23.17;;;11.57;;
3261;SDS011;1643;47.746;9.000;2023-02-16T04:53:55;11.77;;;8.50;;
3261;SDS011;1643;47.746;9.000;2023-02-16T04:56:20;14.20;;;8.83;;
3261;SDS011;1643;47.746;9.000;2023-02-16T04:58:46;19.77;;;10.83;;
3261;SDS011;1643;47.746;9.000;2023-02-16T05:01:30;19.47;;;12.23;;
3261;SDS011;1643;47.746;9.000;2023-02-16T05:03:55;13.57;;;9.50;;
3261;SDS011;1643;47.746;9.000;2023-02-16T05:06:21;15.27;;;9.53;;
3261;SDS011;1643;47.746;9.000;2023-02-16T05:08:47;18.27;;;11.00;;
3261;SDS011;1643;47.746;9.000;2023-02-16T05:11:12;20.37;;;10.83;;
3261;SDS011;1643;47.746;9.000;2023-02-16T05:13:57;15.80;;;9.90;;
3261;SDS011;1643;47.746;9.000;2023-02-16T05:16:42;18.40;;;11.40;;
3261;SDS011;1643;47.746;9.000;2023-02-16T05:19:08;19.37;;;12.00;;
3261;SDS011;1643;47.746;9.000;2023-02-16T05:21:34;18.10;;;11.07;;
3261;SDS011;1643;47.746;9.000;2023-02-16T05:24:01;19.90;;;11.90;;
3261;SDS011;1643;47.746;9.000;2023-02-16T05:26:28;18.20;;;9.90;;
3261;SDS011;1643;47.746;9.000;2023-02-16T05:28:54;22.70;;;12.87;;
3261;SDS011;1643;47.746;9.000;2023-02-16T05:31:21;18.37;;;10.10;;
3261;SDS011;1643;47.746;9.000;2023-02-16T05:33:47;20.87;;;11.10;;
3261;SDS011;1643;47.746;9.000;2023-02-16T05:36:13;17.90;;;10.40;;
3261;SDS011;1643;47.746;9.000;2023-02-16T05:38:39;19.13;;;10.83;;
3261;SDS011;1643;47.746;9.000;2023-02-16T05:41:05;19.60;;;12.03;;
3261;SDS011;1643;47.746;9.000;2023-02-16T05:43:31;23.43;;;12.67;;
3261;SDS011;1643;47.746;9.000;2023-02-16T05:45:56;21.97;;;13.30;;
3261;SDS011;1643;47.746;9.000;2023-02-16T05:48:22;18.00;;;10.87;;
3261;SDS011;1643;47.746;9.000;2023-02-16T05:50:47;20.10;;;10.63;;
3261;SDS011;1643;47.746;9.000;2023-02-16T05:53:13;19.50;;;10.47;;
3261;SDS011;1643;47.746;9.000;2023-02-16T05:55:39;21.00;;;11.93;;
3261;SDS011;1643;47.746;9.000;2023-02-16T05:58:04;22.83;;;12.43;;
3261;SDS011;1643;47.746;9.000;2023-02-16T06:00:30;19.33;;;11.20;;
3261;SDS011;1643;47.746;9.000;2023-02-16T06:02:57;21.60;;;12.30;;
3261;SDS011;1643;47.746;9.000;2023-02-16T06:05:24;15.33;;;10.50;;
3261;SDS011;1643;47.746;9.000;2023-02-16T06:07:50;17.17;;;10.90;;
3261;SDS011;1643;47.746;9.000;2023-02-16T06:10:16;23.93;;;11.20;;
3261;SDS011;1643;47.746;9.000;2023-02-16T06:12:42;17.20;;;10.70;;
3261;SDS011;1643;47.746;9.000;2023-02-16T06:15:08;18.17;;;11.63;;
3261;SDS011;1643;47.746;9.000;2023-02-16T06:17:34;17.97;;;11.00;;
3261;SDS011;1643;47.746;9.000;2023-02-16T06:19:59;19.20;;;11.33;;
3261;SDS011;1643;47.746;9.000;2023-02-16T06:22:25;25.07;;;13.13;;
3261;SDS011;1643;47.746;9.000;2023-02-16T06:24:50;14.10;;;9.90;;
3261;SDS011;1643;47.746;9.000;2023-02-16T06:27:16;19.27;;;10.40;;
3261;SDS011;1643;47.746;9.000;2023-02-16T06:29:42;20.73;;;11.40;;
3261;SDS011;1643;47.746;9.000;2023-02-16T06:32:07;16.50;;;9.90;;
3261;SDS011;1643;47.746;9.000;2023-02-16T06:34:33;19.13;;;11.43;;
3261;SDS011;1643;47.746;9.000;2023-02-16T06:36:58;17.70;;;10.90;;
3261;SDS011;1643;47.746;9.000;2023-02-16T06:39:24;17.23;;;10.37;;
3261;SDS011;1643;47.746;9.000;2023-02-16T06:41:50;21.63;;;11.93;;
3261;SDS011;1643;47.746;9.000;2023-02-16T06:44:15;22.20;;;12.43;;
3261;SDS011;1643;47.746;9.000;2023-02-16T06:46:42;18.90;;;10.23;;
3261;SDS011;1643;47.746;9.000;2023-02-16T06:49:10;18.87;;;10.23;;
3261;SDS011;1643;47.746;9.000;2023-02-16T06:51:37;21.77;;;11.13;;
3261;SDS011;1643;47.746;9.000;2023-02-16T06:54:03;17.80;;;10.10;;
3261;SDS011;1643;47.746;9.000;2023-02-16T06:56:28;15.23;;;9.80;;
3261;SDS011;1643;47.746;9.000;2023-02-16T06:58:54;23.70;;;12.97;;
3261;SDS011;1643;47.746;9.000;2023-02-16T07:01:19;22.03;;;11.30;;
3261;SDS011;1643;47.746;9.000;2023-02-16T07:03:50;20.73;;;10.63;;
3261;SDS011;1643;47.746;9.000;2023-02-16T07:06:16;19.70;;;12.23;;
3261;SDS011;1643;47.746;9.000;2023-02-16T07:08:42;22.00;;;14.40;;
3261;SDS011;1643;47.746;9.000;2023-02-16T07:11:08;23.07;;;15.10;;
3261;SDS011;1643;47.746;9.000;2023-02-16T07:13:34;15.80;;;11.00;;
3261;SDS011;1643;47.746;9.000;2023-02-16T07:16:00;24.20;;;11.00;;
3261;SDS011;1643;47.746;9.000;2023-02-16T07:18:29;27.43;;;11.13;;
3261;SDS011;1643;47.746;9.000;2023-02-16T07:20:55;18.60;;;11.40;;
3261;SDS011;1643;47.746;9.000;2023-02-16T07:23:21;19.50;;;11.47;;
3261;SDS011;1643;47.746;9.000;2023-02-16T07:25:47;19.47;;;11.57;;
3261;SDS011;1643;47.746;9.000;2023-02-16T07:28:12;17.63;;;10.77;;
3261;SDS011;1643;47.746;9.000;2023-02-16T07:30:38;14.87;;;9.17;;
3261;SDS011;1643;47.746;9.000;2023-02-16T07:33:04;15.10;;;9.90;;
3261;SDS011;1643;47.746;9.000;2023-02-16T07:35:33;15.47;;;9.13;;
3261;SDS011;1643;47.746;9.000;2023-02-16T07:37:59;17.33;;;9.87;;
3261;SDS011;1643;47.746;9.000;2023-02-16T07:40:25;14.07;;;9.37;;
3261;SDS011;1643;47.746;9.000;2023-02-16T07:42:51;16.40;;;10.60;;
3261;SDS011;1643;47.746;9.000;2023-02-16T07:45:16;18.07;;;9.47;;
3261;SDS011;1643;47.746;9.000;2023-02-16T07:47:42;16.10;;;9.50;;
3261;SDS011;1643;47.746;9.000;2023-02-16T07:50:08;49.27;;;12.17;;
3261;SDS011;1643;47.746;9.000;2023-02-16T07:52:34;26.23;;;10.50;;
3261;SDS011;1643;47.746;9.000;2023-02-16T07:54:59;35.43;;;11.03;;
3261;SDS011;1643;47.746;9.000;2023-02-16T07:57:25;19.87;;;8.50;;
3261;SDS011;1643;47.746;9.000;2023-02-16T07:59:52;20.87;;;10.00;;
3261;SDS011;1643;47.746;9.000;2023-02-16T08:02:19;21.83;;;10.07;;
3261;SDS011;1643;47.746;9.000;2023-02-16T08:04:46;23.27;;;10.40;;
3261;SDS011;1643;47.746;9.000;2023-02-16T08:07:13;28.13;;;11.60;;
3261;SDS011;1643;47.746;9.000;2023-02-16T08:09:40;16.83;;;10.10;;
3261;SDS011;1643;47.746;9.000;2023-02-16T08:12:12;15.73;;;10.37;;
3261;SDS011;1643;47.746;9.000;2023-02-16T08:14:38;15.47;;;9.13;;
3261;SDS011;1643;47.746;9.000;2023-02-16T08:17:04;15.70;;;10.07;;
3261;SDS011;1643;47.746;9.000;2023-02-16T08:19:31;16.23;;;9.90;;
3261;SDS011;1643;47.746;9.000;2023-02-16T08:21:58;15.80;;;10.50;;
3261;SDS011;1643;47.746;9.000;2023-02-16T08:24:26;19.53;;;11.77;;
3261;SDS011;1643;47.746;9.000;2023-02-16T08:26:52;15.73;;;10.83;;
3261;SDS011;1643;47.746;9.000;2023-02-16T08:29:19;17.13;;;10.73;;
3261;SDS011;1643;47.746;9.000;2023-02-16T08:31:46;13.70;;;8.80;;
3261;SDS011;1643;47.746;9.000;2023-02-16T08:34:13;17.03;;;9.40;;
3261;SDS011;1643;47.746;9.000;2023-02-16T08:36:41;13.67;;;9.10;;
3261;SDS011;1643;47.746;9.000;2023-02-16T08:39:15;12.67;;;8.67;;
3261;SDS011;1643;47.746;9.000;2023-02-16T08:41:43;14.33;;;8.70;;
3261;SDS011;1643;47.746;9.000;2023-02-16T08:44:10;9.97;;;8.07;;
3261;SDS011;1643;47.746;9.000;2023-02-16T08:46:38;15.07;;;9.57;;
3261;SDS011;1643;47.746;9.000;2023-02-16T08:49:05;14.70;;;8.57;;
3261;SDS011;1643;47.746;9.000;2023-02-16T08:51:32;15.20;;;9.23;;
3261;SDS011;1643;47.746;9.000;2023-02-16T08:54:00;14.33;;;8.50;;
3261;SDS011;1643;47.746;9.000;2023-02-16T08:56:27;13.90;;;9.80;;
3261;SDS011;1643;47.746;9.000;2023-02-16T08:58:54;12.00;;;8.87;;
3261;SDS011;1643;47.746;9.000;2023-02-16T09:01:20;15.07;;;10.30;;
3261;SDS011;1643;47.746;9.000;2023-02-16T09:03:46;13.83;;;8.40;;
3261;SDS011;1643;47.746;9.000;2023-02-16T09:06:13;10.50;;;6.83;;
3261;SDS011;1643;47.746;9.000;2023-02-16T09:08:40;13.00;;;8.20;;
3261;SDS011;1643;47.746;9.000;2023-02-16T09:11:08;17.10;;;10.13;;
3261;SDS011;1643;47.746;9.000;2023-02-16T09:13:36;15.53;;;9.50;;
3261;SDS011;1643;47.746;9.000;2023-02-16T09:16:07;12.33;;;8.93;;
3261;SDS011;1643;47.746;9.000;2023-02-16T09:18:35;12.70;;;8.23;;
3261;SDS011;1643;47.746;9.000;2023-02-16T09:21:03;14.90;;;8.53;;
3261;SDS011;1643;47.746;9.000;2023-02-16T09:23:39;12.13;;;8.40;;
3261;SDS011;1643;47.746;9.000;2023-02-16T09:26:06;15.63;;;10.23;;
3261;SDS011;1643;47.746;9.000;2023-02-16T09:28:34;14.40;;;9.80;;
3261;SDS011;1643;47.746;9.000;2023-02-16T09:31:10;20.07;;;11.53;;
3261;SDS011;1643;47.746;9.000;2023-02-16T09:33:38;41.10;;;14.37;;
3261;SDS011;1643;47.746;9.000;2023-02-16T09:36:07;13.73;;;8.93;;
3261;SDS011;1643;47.746;9.000;2023-02-16T09:38:35;17.17;;;10.67;;
3261;SDS011;1643;47.746;9.000;2023-02-16T09:46:24;14.87;;;10.40;;
3261;SDS011;1643;47.746;9.000;2023-02-16T09:48:50;16.60;;;10.10;;
3261;SDS011;1643;47.746;9.000;2023-02-16T09:51:50;15.93;;;9.53;;
3261;SDS011;1643;47.746;9.000;2023-02-16T09:56:57;19.20;;;11.77;;
3261;SDS011;1643;47.746;9.000;2023-02-16T10:05:04;23.63;;;12.40;;
3261;SDS011;1643;47.746;9.000;2023-02-16T10:13:59;17.33;;;11.37;;
3261;SDS011;1643;47.746;9.000;2023-02-16T10:16:35;38.80;;;15.73;;
3261;SDS011;1643;47.746;9.000;2023-02-16T10:19:15;20.00;;;12.47;;
3261;SDS011;1643;47.746;9.000;2023-02-16T10:21:54;20.30;;;12.53;;
3261;SDS011;1643;47.746;9.000;2023-02-16T10:24:23;18.70;;;11.87;;
3261;SDS011;1643;47.746;9.000;2023-02-16T10:27:02;21.17;;;12.17;;
3261;SDS011;1643;47.746;9.000;2023-02-16T10:29:33;20.30;;;12.00;;
3261;SDS011;1643;47.746;9.000;2023-02-16T10:37:38;19.23;;;13.50;;
3261;SDS011;1643;47.746;9.000;2023-02-16T10:43:03;16.43;;;11.00;;
3261;SDS011;1643;47.746;9.000;2023-02-16T10:48:18;26.03;;;16.03;;
3261;SDS011;1643;47.746;9.000;2023-02-16T10:50:50;33.10;;;17.53;;
3261;SDS011;1643;47.746;9.000;2023-02-16T10:55:56;24.60;;;13.90;;
3261;SDS011;1643;47.746;9.000;2023-02-16T10:58:25;21.30;;;13.20;;
3261;SDS011;1643;47.746;9.000;2023-02-16T11:01:18;30.40;;;16.60;;
3261;SDS011;1643;47.746;9.000;2023-02-16T11:03:47;22.97;;;13.50;;
3261;SDS011;1643;47.746;9.000;2023-02-16T11:06:14;21.73;;;14.03;;
3261;SDS011;1643;47.746;9.000;2023-02-16T11:11:13;23.23;;;15.13;;
3261;SDS011;1643;47.746;9.000;2023-02-16T11:13:38;25.10;;;14.70;;
3261;SDS011;1643;47.746;9.000;2023-02-16T11:16:07;19.50;;;12.97;;
3261;SDS011;1643;47.746;9.000;2023-02-16T11:18:37;19.30;;;13.50;;
3261;SDS011;1643;47.746;9.000;2023-02-16T11:21:06;28.57;;;16.63;;
3261;SDS011;1643;47.746;9.000;2023-02-16T11:23:35;26.80;;;16.90;;
3261;SDS011;1643;47.746;9.000;2023-02-16T11:28:36;28.47;;;15.97;;
3261;SDS011;1643;47.746;9.000;2023-02-16T11:36:36;23.83;;;14.27;;
3261;SDS011;1643;47.746;9.000;2023-02-16T11:39:16;21.40;;;13.13;;
3261;SDS011;1643;47.746;9.000;2023-02-16T11:41:58;27.73;;;16.33;;
3261;SDS011;1643;47.746;9.000;2023-02-16T11:44:26;27.90;;;17.13;;
3261;SDS011;1643;47.746;9.000;2023-02-16T11:46:56;25.50;;;16.10;;
3261;SDS011;1643;47.746;9.000;2023-02-16T11:51:53;25.57;;;15.60;;
3261;SDS011;1643;47.746;9.000;2023-02-16T11:54:19;24.27;;;15.80;;
3261;SDS011;1643;47.746;9.000;2023-02-16T11:56:59;28.80;;;17.43;;
3261;SDS011;1643;47.746;9.000;2023-02-16T11:59:27;26.13;;;16.23;;
3261;SDS011;1643;47.746;9.000;2023-02-16T12:02:02;27.30;;;16.37;;
3261;SDS011;1643;47.746;9.000;2023-02-16T12:07:07;25.90;;;16.77;;
3261;SDS011;1643;47.746;9.000;2023-02-16T12:17:55;24.50;;;16.47;;
3261;SDS011;1643;47.746;9.000;2023-02-16T12:23:10;30.97;;;19.70;;
3261;SDS011;1643;47.746;9.000;2023-02-16T12:25:51;24.40;;;15.90;;
3261;SDS011;1643;47.746;9.000;2023-02-16T12:28:42;23.83;;;15.10;;
3261;SDS011;1643;47.746;9.000;2023-02-16T12:45:00;25.57;;;16.20;;
3261;SDS011;1643;47.746;9.000;2023-02-16T12:50:31;23.97;;;16.10;;
3261;SDS011;1643;47.746;9.000;2023-02-16T12:53:03;23.23;;;15.00;;
3261;SDS011;1643;47.746;9.000;2023-02-16T12:58:31;22.67;;;15.10;;
3261;SDS011;1643;47.746;9.000;2023-02-16T13:01:12;18.00;;;12.53;;
3261;SDS011;1643;47.746;9.000;2023-02-16T13:11:51;18.40;;;13.10;;
3261;SDS011;1643;47.746;9.000;2023-02-16T13:14:26;19.10;;;13.40;;
3261;SDS011;1643;47.746;9.000;2023-02-16T13:19:23;17.77;;;12.17;;
3261;SDS011;1643;47.746;9.000;2023-02-16T13:27:31;20.20;;;13.80;;
3261;SDS011;1643;47.746;9.000;2023-02-16T13:43:35;18.13;;;13.60;;
3261;SDS011;1643;47.746;9.000;2023-02-16T13:46:14;18.80;;;13.67;;
3261;SDS011;1643;47.746;9.000;2023-02-16T13:48:50;21.40;;;14.27;;
3261;SDS011;1643;47.746;9.000;2023-02-16T13:51:20;21.93;;;13.93;;
3261;SDS011;1643;47.746;9.000;2023-02-16T13:53:58;18.70;;;13.57;;
3261;SDS011;1643;47.746;9.000;2023-02-16T13:58:58;17.60;;;12.83;;
3261;SDS011;1643;47.746;9.000;2023-02-16T14:01:46;20.87;;;13.77;;
3261;SDS011;1643;47.746;9.000;2023-02-16T14:06:46;19.03;;;13.93;;
3261;SDS011;1643;47.746;9.000;2023-02-16T14:12:08;17.53;;;12.80;;
3261;SDS011;1643;47.746;9.000;2023-02-16T14:20:10;22.17;;;16.07;;
3261;SDS011;1643;47.746;9.000;2023-02-16T14:22:51;19.93;;;13.17;;
3261;SDS011;1643;47.746;9.000;2023-02-16T14:27:50;21.60;;;14.00;;
3261;SDS011;1643;47.746;9.000;2023-02-16T14:33:00;22.60;;;15.57;;
3261;SDS011;1643;47.746;9.000;2023-02-16T14:35:29;19.77;;;14.03;;
3261;SDS011;1643;47.746;9.000;2023-02-16T14:43:25;20.70;;;13.83;;
3261;SDS011;1643;47.746;9.000;2023-02-16T14:54:34;28.67;;;18.77;;
3261;SDS011;1643;47.746;9.000;2023-02-16T14:57:13;20.90;;;14.63;;
3261;SDS011;1643;47.746;9.000;2023-02-16T15:00:20;19.80;;;14.00;;
3261;SDS011;1643;47.746;9.000;2023-02-16T15:03:11;23.07;;;14.20;;
3261;SDS011;1643;47.746;9.000;2023-02-16T15:05:39;65.77;;;31.10;;
3261;SDS011;1643;47.746;9.000;2023-02-16T15:08:15;32.07;;;18.47;;
3261;SDS011;1643;47.746;9.000;2023-02-16T15:10:46;26.27;;;15.37;;
3261;SDS011;1643;47.746;9.000;2023-02-16T15:13:23;39.50;;;22.20;;
3261;SDS011;1643;47.746;9.000;2023-02-16T15:15:52;57.80;;;29.50;;
3261;SDS011;1643;47.746;9.000;2023-02-16T15:18:21;38.93;;;20.50;;
3261;SDS011;1643;47.746;9.000;2023-02-16T15:20:50;27.50;;;18.17;;
3261;SDS011;1643;47.746;9.000;2023-02-16T15:31:45;18.57;;;13.20;;
3261;SDS011;1643;47.746;9.000;2023-02-16T15:34:12;19.33;;;13.90;;
3261;SDS011;1643;47.746;9.000;2023-02-16T15:36:50;19.77;;;14.07;;
3261;SDS011;1643;47.746;9.000;2023-02-16T15:44:47;19.70;;;13.23;;
3261;SDS011;1643;47.746;9.000;2023-02-16T15:49:41;19.43;;;13.83;;
3261;SDS011;1643;47.746;9.000;2023-02-16T15:52:11;19.23;;;14.33;;
3261;SDS011;1643;47.746;9.000;2023-02-16T15:54:42;22.43;;;16.40;;
3261;SDS011;1643;47.746;9.000;2023-02-16T15:59:49;23.43;;;16.83;;
3261;SDS011;1643;47.746;9.000;2023-02-16T16:02:19;20.40;;;14.73;;
3261;SDS011;1643;47.746;9.000;2023-02-16T16:04:49;21.77;;;14.73;;
3261;SDS011;1643;47.746;9.000;2023-02-16T16:07:20;21.23;;;14.50;;
3261;SDS011;1643;47.746;9.000;2023-02-16T16:09:59;20.47;;;14.57;;
3261;SDS011;1643;47.746;9.000;2023-02-16T16:12:27;19.87;;;14.77;;
3261;SDS011;1643;47.746;9.000;2023-02-16T16:14:55;21.73;;;13.20;;
3261;SDS011;1643;47.746;9.000;2023-02-16T16:17:36;19.20;;;14.50;;
3261;SDS011;1643;47.746;9.000;2023-02-16T16:22:54;21.53;;;14.87;;
3261;SDS011;1643;47.746;9.000;2023-02-16T16:28:01;24.60;;;14.50;;
3261;SDS011;1643;47.746;9.000;2023-02-16T16:30:30;20.60;;;14.87;;
3261;SDS011;1643;47.746;9.000;2023-02-16T16:33:01;21.30;;;15.47;;
3261;SDS011;1643;47.746;9.000;2023-02-16T16:35:47;21.23;;;15.07;;
3261;SDS011;1643;47.746;9.000;2023-02-16T16:40:59;19.80;;;13.90;;
3261;SDS011;1643;47.746;9.000;2023-02-16T16:43:36;22.27;;;13.60;;
3261;SDS011;1643;47.746;9.000;2023-02-16T16:46:19;18.77;;;13.90;;
3261;SDS011;1643;47.746;9.000;2023-02-16T16:48:50;23.03;;;15.40;;
3261;SDS011;1643;47.746;9.000;2023-02-16T16:56:26;23.10;;;16.30;;
3261;SDS011;1643;47.746;9.000;2023-02-16T16:58:53;21.10;;;15.20;;
3261;SDS011;1643;47.746;9.000;2023-02-16T17:01:21;22.10;;;15.70;;
3261;SDS011;1643;47.746;9.000;2023-02-16T17:03:48;21.23;;;14.20;;
3261;SDS011;1643;47.746;9.000;2023-02-16T17:06:14;22.03;;;13.70;;
3261;SDS011;1643;47.746;9.000;2023-02-16T17:08:44;18.53;;;14.03;;
3261;SDS011;1643;47.746;9.000;2023-02-16T17:11:12;22.63;;;14.43;;
3261;SDS011;1643;47.746;9.000;2023-02-16T17:13:55;19.37;;;14.23;;
3261;SDS011;1643;47.746;9.000;2023-02-16T17:16:28;22.73;;;16.03;;
3261;SDS011;1643;47.746;9.000;2023-02-16T17:19:04;20.50;;;14.57;;
3261;SDS011;1643;47.746;9.000;2023-02-16T17:21:30;16.47;;;12.20;;
3261;SDS011;1643;47.746;9.000;2023-02-16T17:23:56;18.60;;;13.00;;
3261;SDS011;1643;47.746;9.000;2023-02-16T17:26:21;17.57;;;13.47;;
3261;SDS011;1643;47.746;9.000;2023-02-16T17:28:48;19.00;;;12.73;;
3261;SDS011;1643;47.746;9.000;2023-02-16T17:31:14;16.70;;;12.67;;
3261;SDS011;1643;47.746;9.000;2023-02-16T17:33:40;21.60;;;13.50;;
3261;SDS011;1643;47.746;9.000;2023-02-16T17:36:05;21.47;;;12.77;;
3261;SDS011;1643;47.746;9.000;2023-02-16T17:38:32;15.67;;;11.37;;
3261;SDS011;1643;47.746;9.000;2023-02-16T17:40:58;17.53;;;12.93;;
3261;SDS011;1643;47.746;9.000;2023-02-16T17:43:24;21.60;;;13.50;;
3261;SDS011;1643;47.746;9.000;2023-02-16T17:45:51;16.07;;;10.97;;
3261;SDS011;1643;47.746;9.000;2023-02-16T17:48:19;21.00;;;13.23;;
3261;SDS011;1643;47.746;9.000;2023-02-16T17:50:47;18.67;;;13.70;;
3261;SDS011;1643;47.746;9.000;2023-02-16T17:53:15;17.07;;;11.83;;
3261;SDS011;1643;47.746;9.000;2023-02-16T17:55:42;17.93;;;12.60;;
3261;SDS011;1643;47.746;9.000;2023-02-16T17:58:10;17.47;;;12.00;;
3261;SDS011;1643;47.746;9.000;2023-02-16T18:00:36;19.07;;;12.60;;
3261;SDS011;1643;47.746;9.000;2023-02-16T18:03:02;16.57;;;11.63;;
3261;SDS011;1643;47.746;9.000;2023-02-16T18:05:28;20.83;;;14.03;;
3261;SDS011;1643;47.746;9.000;2023-02-16T18:07:54;17.47;;;13.20;;
3261;SDS011;1643;47.746;9.000;2023-02-16T18:10:31;19.83;;;14.30;;
3261;SDS011;1643;47.746;9.000;2023-02-16T18:13:00;19.37;;;14.37;;
3261;SDS011;1643;47.746;9.000;2023-02-16T18:15:26;16.23;;;11.70;;
3261;SDS011;1643;47.746;9.000;2023-02-16T18:17:52;18.03;;;12.67;;
3261;SDS011;1643;47.746;9.000;2023-02-16T18:20:18;20.80;;;13.53;;
3261;SDS011;1643;47.746;9.000;2023-02-16T18:22:44;18.43;;;13.53;;
3261;SDS011;1643;47.746;9.000;2023-02-16T18:25:09;18.30;;;11.83;;
3261;SDS011;1643;47.746;9.000;2023-02-16T18:27:35;18.03;;;11.77;;
3261;SDS011;1643;47.746;9.000;2023-02-16T18:30:01;18.33;;;12.90;;
3261;SDS011;1643;47.746;9.000;2023-02-16T18:32:26;19.77;;;12.53;;
3261;SDS011;1643;47.746;9.000;2023-02-16T18:34:52;18.00;;;12.30;;
3261;SDS011;1643;47.746;9.000;2023-02-16T18:37:18;21.20;;;15.13;;
3261;SDS011;1643;47.746;9.000;2023-02-16T18:39:44;22.67;;;15.30;;
3261;SDS011;1643;47.746;9.000;2023-02-16T18:42:09;24.77;;;16.83;;